Time;durP1;ratioP1;P1;durP2;ratioP2;P2;SDS_P1;SDS_P2;PMS_P1;PMS_P2;Temp;Humidity;BMP_temperature;BMP_pressure;BME280_temperature;BME280_humidity;BME280_pressure;Samples;Min_cycle;Max_cycle;Signal;HPM_P1;HPM_P2
2022/04/30 00:01:18;;;;;;;;;32.25;24.25;;;;;15.88;61.42;102377.41;5058718;28;46345;-79
2022/04/30 00:03:44;;;;;;;;;35.00;30.00;;;;;15.85;61.58;102379.13;5057521;28;45367;-78
2022/04/30 00:06:10;;;;;;;;;35.50;32.00;;;;;15.80;61.55;102370.19;5058130;28;45254;-78
2022/04/30 00:08:35;;;;;;;;;34.50;28.75;;;;;15.77;62.00;102383.47;5058838;28;45173;-78
2022/04/30 00:11:00;;;;;;;;;39.00;31.75;;;;;15.72;62.25;102378.06;5058553;28;47202;-78
2022/04/30 00:13:26;;;;;;;;;36.50;32.00;;;;;15.69;62.11;102381.56;5040467;28;46113;-79
2022/04/30 00:15:51;;;;;;;;;36.50;29.25;;;;;15.66;62.86;102385.97;5058919;28;45188;-77
2022/04/30 00:18:17;;;;;;;;;59.00;46.25;;;;;15.62;62.72;102392.97;5058973;28;45676;-78
2022/04/30 00:20:47;;;;;;;;;75.75;54.25;;;;;15.59;63.69;102392.03;5058531;28;45406;-79
2022/04/30 00:23:19;;;;;;;;;68.00;51.25;;;;;15.52;63.40;102387.50;5057730;28;45288;-79
2022/04/30 00:25:54;;;;;;;;;76.25;56.25;;;;;15.45;63.35;102383.84;5058093;28;45422;-78
2022/04/30 00:28:22;;;;;;;;;69.25;53.50;;;;;15.42;63.89;102387.34;5058697;28;45340;-79
2022/04/30 00:30:48;;;;;;;;;67.25;51.75;;;;;15.42;64.55;102386.44;5058210;28;46198;-79
2022/04/30 00:33:14;;;;;;;;;55.75;44.25;;;;;15.40;64.55;102394.41;5058063;28;45349;-79
2022/04/30 00:35:40;;;;;;;;;43.50;34.75;;;;;15.36;65.45;102389.00;5027461;28;45324;-78
2022/04/30 00:38:06;;;;;;;;;37.25;32.75;;;;;15.35;64.99;102396.09;5040530;28;45645;-78
2022/04/30 00:40:31;;;;;;;;;49.25;37.75;;;;;15.34;66.30;102390.72;5040000;28;47256;-77
2022/04/30 00:42:57;;;;;;;;;46.25;36.25;;;;;15.24;66.05;102389.72;5040155;28;46082;-78
2022/04/30 00:45:22;;;;;;;;;39.75;31.75;;;;;15.23;66.63;102392.31;5058357;28;45370;-79
2022/04/30 00:47:48;;;;;;;;;34.25;31.25;;;;;15.18;66.28;102395.84;5058464;28;45418;-78
2022/04/30 00:50:15;;;;;;;;;39.50;30.25;;;;;15.15;66.48;102402.84;5056634;28;53179;-78
2022/04/30 00:52:43;;;;;;;;;54.75;45.50;;;;;15.13;67.43;102404.59;5057483;28;45390;-78
2022/04/30 00:55:08;;;;;;;;;68.25;48.00;;;;;15.09;68.34;102393.00;5041411;28;45216;-79
2022/04/30 00:57:36;;;;;;;;;57.75;43.75;;;;;15.06;68.40;102395.59;5058267;28;45185;-78
2022/04/30 01:00:03;;;;;;;;;39.00;33.00;;;;;15.03;68.74;102395.56;5057999;28;46601;-78
2022/04/30 01:02:30;;;;;;;;;44.00;33.00;;;;;15.00;69.71;102391.94;5057925;28;45305;-78
2022/04/30 01:04:59;;;;;;;;;39.00;31.25;;;;;14.95;69.68;102389.19;5039868;28;45481;-79
2022/04/30 01:07:25;;;;;;;;;35.25;28.50;;;;;14.94;69.80;102392.72;5039970;28;45488;-79
2022/04/30 01:09:52;;;;;;;;;75.00;54.75;;;;;14.89;70.99;102382.00;5039392;28;46379;-79
2022/04/30 01:12:18;;;;;;;;;62.00;46.00;;;;;14.86;70.95;102389.00;5058022;28;45374;-79
2022/04/30 01:14:45;;;;;;;;;39.75;35.00;;;;;14.82;75.08;102387.19;5056460;28;45472;-78
2022/04/30 01:17:11;;;;;;;;;43.75;34.75;;;;;14.78;72.13;102383.56;5058002;28;45477;-78
2022/04/30 01:19:43;;;;;;;;;50.50;38.25;;;;;14.75;71.88;102380.84;5057285;28;46783;-79
2022/04/30 01:22:20;;;;;;;;;42.00;32.25;;;;;14.74;73.10;102381.72;5056042;28;46214;-78
2022/04/30 01:24:46;;;;;;;;;41.25;34.00;;;;;14.68;73.75;102373.63;5055927;28;45267;-78
2022/04/30 01:27:13;;;;;;;;;35.75;32.00;;;;;14.62;74.01;102365.53;5057796;28;45471;-78
2022/04/30 01:29:39;;;;;;;;;34.25;32.00;;;;;14.64;73.36;102387.72;5039394;28;47561;-79
2022/04/30 01:37:38;;;;;;;;;37.00;33.50;;;;;14.56;74.91;102376.06;5057485;28;45290;-78
2022/04/30 01:40:10;;;;;;;;;36.00;30.00;;;;;14.50;74.48;102371.53;5054371;28;46624;-78
2022/04/30 01:42:41;;;;;;;;;36.00;33.00;;;;;14.46;74.83;102369.63;5056677;28;45342;-78
2022/04/30 01:45:08;;;;;;;;;31.50;30.50;;;;;14.44;75.69;102371.38;5039496;28;45301;-78
2022/04/30 01:47:36;;;;;;;;;34.25;30.75;;;;;14.41;75.35;102366.88;5057526;28;45492;-79
2022/04/30 01:50:02;;;;;;;;;28.75;26.25;;;;;14.37;75.38;102369.44;5057311;28;46555;-79
2022/04/30 01:52:29;;;;;;;;;35.25;30.50;;;;;14.33;75.80;102357.88;5057113;28;45371;-78
2022/04/30 01:54:55;;;;;;;;;41.75;30.75;;;;;14.29;76.38;102364.00;5056261;28;45501;-78
2022/04/30 01:57:25;;;;;;;;;34.25;26.25;;;;;14.29;76.25;102365.75;5057260;28;45506;-77
2022/04/30 01:59:52;;;;;;;;;35.25;30.50;;;;;14.27;76.69;102351.53;5054429;28;46410;-78
2022/04/30 02:02:19;;;;;;;;;40.75;33.50;;;;;14.25;77.04;102356.81;5056738;28;45405;-78
2022/04/30 02:04:45;;;;;;;;;37.50;32.00;;;;;14.23;77.60;102353.25;5056963;28;45307;-79
2022/04/30 02:07:10;;;;;;;;;31.50;30.25;;;;;14.20;79.50;102357.59;5040971;28;45392;-79
2022/04/30 02:09:36;;;;;;;;;32.75;29.50;;;;;14.17;78.41;102355.78;5054835;28;46406;-79
2022/04/30 02:12:01;;;;;;;;;40.00;34.75;;;;;14.14;78.82;102350.38;5056618;28;49042;-78
2022/04/30 02:14:30;;;;;;;;;34.50;30.50;;;;;14.12;78.54;102346.81;5057074;28;45297;-78
2022/04/30 02:16:58;;;;;;;;;35.50;31.00;;;;;14.15;79.11;102353.06;5057004;28;45170;-78
2022/04/30 02:19:28;;;;;;;;;39.25;30.50;;;;;14.16;79.22;102352.19;5055400;28;48062;-79
2022/04/30 02:21:57;;;;;;;;;32.75;28.25;;;;;14.17;80.99;102350.47;5037670;28;45483;-77
2022/04/30 02:24:25;;;;;;;;;37.50;30.00;;;;;14.18;79.79;102346.94;5037015;28;45429;-78
2022/04/30 02:26:50;;;;;;;;;35.50;29.00;;;;;14.18;79.33;102340.72;5038926;28;45309;-78
2022/04/30 02:29:15;;;;;;;;;37.25;31.50;;;;;14.19;79.23;102339.84;5056731;28;46473;-77
2022/04/30 02:31:41;;;;;;;;;33.00;29.00;;;;;14.19;79.62;102342.50;5056470;28;45393;-78
2022/04/30 02:34:06;;;;;;;;;35.00;30.00;;;;;14.21;79.75;102344.31;5056383;28;45228;-78
2022/04/30 02:36:32;;;;;;;;;35.75;32.25;;;;;14.23;80.30;102344.38;5056740;28;45408;-78
2022/04/30 02:38:59;;;;;;;;;34.50;30.25;;;;;14.22;79.72;102347.88;5056148;28;45264;-78
2022/04/30 02:41:24;;;;;;;;;42.50;32.25;;;;;14.20;80.26;102345.19;5051522;28;45442;-78
2022/04/30 02:43:51;;;;;;;;;33.75;31.50;;;;;14.14;81.24;102340.66;5038621;28;45241;-79
2022/04/30 02:46:17;;;;;;;;;34.25;30.50;;;;;14.10;80.86;102341.44;5056676;28;45425;-77
2022/04/30 02:48:44;;;;;;;;;35.75;31.50;;;;;14.04;81.13;102340.44;5056485;28;46870;-78
2022/04/30 02:51:10;;;;;;;;;35.25;30.75;;;;;14.03;81.56;102346.63;5021918;28;45337;-79
2022/04/30 02:53:37;;;;;;;;;34.25;29.25;;;;;14.00;80.89;102333.25;5055865;28;45521;-77
2022/04/30 02:56:03;;;;;;;;;34.75;31.25;;;;;13.99;81.45;102331.47;5056502;28;45432;-77
2022/04/30 03:01:12;;;;;;;;;32.25;30.75;;;;;13.97;81.88;102333.22;5056601;28;45200;-77
2022/04/30 03:03:38;;;;;;;;;38.50;33.25;;;;;13.95;81.46;102332.25;5056430;28;45534;-78
2022/04/30 03:06:03;;;;;;;;;37.25;32.50;;;;;13.92;82.00;102324.25;5056153;28;45311;-77
2022/04/30 03:08:29;;;;;;;;;32.00;26.00;;;;;13.91;82.18;102326.00;5054859;28;47452;-78
2022/04/30 03:10:56;;;;;;;;;31.25;28.75;;;;;13.90;82.44;102332.16;5049426;28;45328;-79
2022/04/30 03:13:26;;;;;;;;;35.25;27.75;;;;;13.89;82.09;102335.69;5056290;28;45247;-78
2022/04/30 03:15:54;;;;;;;;;35.25;30.25;;;;;13.87;83.43;102337.44;5056548;28;45279;-78
2022/04/30 03:23:33;;;;;;;;;28.50;27.00;;;;;13.76;83.32;102325.69;5059121;28;45205;-78
2022/04/30 03:25:59;;;;;;;;;33.75;30.00;;;;;13.75;83.27;102323.91;5059651;28;45558;-79
2022/04/30 03:28:24;;;;;;;;;38.50;29.50;;;;;13.73;84.14;102326.50;5059388;28;47223;-79
2022/04/30 03:30:50;;;;;;;;;33.50;28.25;;;;;13.69;83.73;102324.66;5059483;28;45370;-77
2022/04/30 03:33:15;;;;;;;;;34.50;31.50;;;;;13.68;84.06;102330.81;5041229;28;45796;-78
2022/04/30 03:35:42;;;;;;;;;38.50;31.75;;;;;13.65;84.41;102322.78;5058886;28;45582;-78
2022/04/30 03:38:08;;;;;;;;;36.75;27.00;;;;;13.66;84.14;102324.56;5059311;28;45828;-78
2022/04/30 03:40:38;;;;;;;;;33.00;27.00;;;;;13.64;84.84;102313.03;5059085;28;45455;-78
2022/04/30 03:43:04;;;;;;;;;31.75;30.00;;;;;13.62;84.05;102318.28;5059570;28;45319;-78
2022/04/30 03:45:30;;;;;;;;;33.25;31.00;;;;;13.60;84.94;102330.66;5041752;28;45531;-79
2022/04/30 03:47:55;;;;;;;;;37.00;30.25;;;;;13.57;84.92;102317.28;5041389;28;51300;-78
2022/04/30 03:50:21;;;;;;;;;35.00;27.00;;;;;13.56;86.06;102322.56;5059333;28;45247;-79
2022/04/30 03:52:46;;;;;;;;;35.25;27.75;;;;;13.55;85.03;102320.78;5058698;28;45501;-79
2022/04/30 03:55:14;;;;;;;;;33.50;30.00;;;;;13.55;85.34;102324.34;5059296;28;45410;-77
2022/04/30 03:57:39;;;;;;;;;31.50;27.50;;;;;13.55;85.21;102320.78;5059045;28;46996;-78
2022/04/30 04:00:05;;;;;;;;;28.25;27.75;;;;;13.54;85.28;102319.91;5054851;28;45358;-79
2022/04/30 04:02:31;;;;;;;;;29.25;26.00;;;;;13.54;86.04;102322.53;5059129;28;45193;-78
2022/04/30 04:04:56;;;;;;;;;28.75;27.00;;;;;13.51;86.45;102319.81;5059270;28;45437;-78
2022/04/30 04:07:22;;;;;;;;;35.75;31.00;;;;;13.44;86.09;102320.53;5058594;28;52303;-78
2022/04/30 04:09:47;;;;;;;;;32.50;28.50;;;;;13.41;87.49;102317.81;5050176;28;45336;-78
2022/04/30 04:12:13;;;;;;;;;30.25;29.50;;;;;13.38;86.10;102319.50;5057794;28;45695;-79
2022/04/30 04:17:37;;;;;;;;;34.75;29.00;;;;;13.35;86.66;102328.28;5058955;28;45480;-78
2022/04/30 04:20:17;;;;;;;;;39.25;30.50;;;;;13.33;86.68;102322.06;5058522;28;45346;-78
2022/04/30 04:22:43;;;;;;;;;37.75;32.25;;;;;13.30;86.92;102324.63;5058019;28;45418;-79
2022/04/30 04:27:57;;;;;;;;;37.00;33.75;;;;;13.28;87.05;102327.25;5058593;28;45386;-79
2022/04/30 04:30:27;;;;;;;;;34.75;29.50;;;;;13.26;87.28;102328.06;5058696;28;45215;-79
2022/04/30 04:32:53;;;;;;;;;30.50;29.50;;;;;13.26;88.28;102328.06;5057201;28;45438;-78
2022/04/30 04:35:19;;;;;;;;;41.75;32.00;;;;;13.26;88.04;102328.97;5058254;28;45343;-78
2022/04/30 04:37:45;;;;;;;;;38.50;34.00;;;;;13.26;88.37;102331.63;5056578;28;46478;-78
2022/04/30 04:40:11;;;;;;;;;40.00;34.25;;;;;13.27;88.35;102330.75;5056992;28;46124;-77
2022/04/30 04:42:40;;;;;;;;;35.25;29.25;;;;;13.27;87.73;102332.53;5058329;28;45314;-79
2022/04/30 04:45:07;;;;;;;;;34.75;32.00;;;;;13.28;87.91;102334.31;5058606;28;45649;-78
2022/04/30 04:47:39;;;;;;;;;31.50;27.75;;;;;13.26;88.61;102339.59;5058073;28;47194;-78
2022/04/30 04:50:08;;;;;;;;;42.25;33.00;;;;;13.22;88.48;102336.81;5040289;28;45230;-78
2022/04/30 04:52:33;;;;;;;;;34.75;28.00;;;;;13.21;88.30;102334.97;5057384;28;45256;-79
2022/04/30 04:54:59;;;;;;;;;37.25;33.75;;;;;13.22;88.86;102343.03;5057534;28;45473;-80
2022/04/30 04:57:24;;;;;;;;;35.25;30.75;;;;;13.24;89.35;102343.03;5057862;28;46267;-78
2022/04/30 04:59:49;;;;;;;;;38.25;33.00;;;;;13.27;88.73;102348.44;5054967;28;45227;-79
2022/04/30 05:02:16;;;;;;;;;33.25;28.75;;;;;13.29;89.22;102355.56;5057978;28;46059;-78
2022/04/30 05:07:17;;;;;;;;;31.25;29.75;;;;;13.32;89.37;102353.00;5077854;22;45474;-79
2022/04/30 05:09:42;;;;;;;;;38.00;28.00;;;;;13.34;89.16;102350.38;5040746;28;45438;-79
2022/04/30 05:12:11;;;;;;;;;44.75;33.00;;;;;13.39;89.26;102354.03;5039902;28;45769;-80
2022/04/30 05:14:36;;;;;;;;;34.00;28.00;;;;;13.40;89.27;102357.56;5057044;28;45454;-79
2022/04/30 05:17:04;;;;;;;;;32.50;28.50;;;;;13.42;89.17;102361.16;5048465;28;47357;-79
2022/04/30 05:19:29;;;;;;;;;34.75;29.50;;;;;13.41;89.01;102362.00;5057365;28;45257;-79
2022/04/30 05:21:54;;;;;;;;;38.00;29.75;;;;;13.37;89.41;102350.47;5057476;28;45197;-79
2022/04/30 05:24:20;;;;;;;;;42.75;34.00;;;;;13.38;89.59;102359.31;5057569;28;45454;-79
2022/04/30 05:26:47;;;;;;;;;49.75;36.00;;;;;13.36;90.06;102356.59;5057211;28;47510;-80
2022/04/30 05:29:13;;;;;;;;;38.00;33.25;;;;;13.39;90.11;102372.59;5057477;28;45332;-78
2022/04/30 05:31:38;;;;;;;;;37.75;32.50;;;;;13.40;90.36;102360.22;5057504;28;45361;-79
2022/04/30 05:34:04;;;;;;;;;44.50;33.75;;;;;13.40;90.95;102365.53;5061365;28;45551;-79
2022/04/30 05:36:29;;;;;;;;;40.50;30.25;;;;;13.42;90.21;102370.00;5057047;28;47399;-79
2022/04/30 05:38:55;;;;;;;;;40.75;34.00;;;;;13.44;90.77;102367.41;5057102;28;45299;-79
2022/04/30 05:41:20;;;;;;;;;37.50;32.25;;;;;13.48;90.65;102372.84;5057167;28;45678;-78
2022/04/30 05:43:46;;;;;;;;;34.50;31.50;;;;;13.54;90.82;102383.59;5040574;28;45497;-78
2022/04/30 05:46:13;;;;;;;;;44.50;33.00;;;;;13.59;91.14;102376.63;5059242;28;54401;-79
2022/04/30 05:48:38;;;;;;;;;38.00;34.00;;;;;13.70;91.05;102381.28;5040579;28;45328;-79
2022/04/30 05:51:04;;;;;;;;;33.00;30.00;;;;;13.78;90.77;102383.25;5039220;28;45542;-80
2022/04/30 05:53:30;;;;;;;;;46.00;35.50;;;;;13.83;91.05;102383.34;5057051;28;45530;-79
2022/04/30 05:55:55;;;;;;;;;36.25;33.00;;;;;13.83;92.40;102389.56;5057072;28;45764;-79
2022/04/30 05:58:20;;;;;;;;;41.50;35.00;;;;;13.85;90.55;102381.66;5056638;28;52248;-79
2022/04/30 06:00:46;;;;;;;;;42.75;35.25;;;;;13.86;90.80;102391.41;5057247;28;45720;-79
2022/04/30 06:03:12;;;;;;;;;46.25;36.25;;;;;13.87;90.37;102388.75;5057037;28;45534;-80
2022/04/30 06:05:37;;;;;;;;;39.75;32.50;;;;;13.91;90.82;102396.81;5051440;28;46021;-79
2022/04/30 06:08:04;;;;;;;;;33.75;28.00;;;;;13.93;90.47;102389.75;5036748;28;45375;-79
2022/04/30 06:10:30;;;;;;;;;45.25;35.00;;;;;13.94;90.93;102387.13;5036931;28;45305;-80
2022/04/30 06:12:55;;;;;;;;;42.25;35.00;;;;;14.01;90.16;102396.13;5036850;28;45554;-80
2022/04/30 06:15:21;;;;;;;;;33.50;32.75;;;;;14.03;90.36;102399.72;5036833;28;46558;-79
2022/04/30 06:17:46;;;;;;;;;35.25;33.50;;;;;14.04;89.97;102402.41;5036381;28;45443;-79
2022/04/30 06:20:12;;;;;;;;;36.25;33.00;;;;;14.05;90.06;102403.31;5036814;28;45584;-80
2022/04/30 06:22:37;;;;;;;;;38.50;28.50;;;;;14.06;89.88;102402.44;5036672;28;45292;-79
2022/04/30 06:25:03;;;;;;;;;36.00;28.50;;;;;14.06;89.55;102403.38;5032267;28;50648;-79
2022/04/30 06:27:29;;;;;;;;;41.25;30.75;;;;;14.07;89.29;102398.94;5032767;28;45269;-79
2022/04/30 06:29:54;;;;;;;;;39.25;30.25;;;;;14.06;89.42;102400.72;5036929;28;45367;-80
2022/04/30 06:32:20;;;;;;;;;38.75;34.00;;;;;14.09;89.48;102402.50;5036540;28;45296;-79
2022/04/30 06:34:45;;;;;;;;;37.25;30.00;;;;;14.13;89.36;102404.38;5039223;28;51495;-80
2022/04/30 06:37:10;;;;;;;;;38.25;31.75;;;;;14.22;89.50;102406.31;5036113;28;47928;-79
2022/04/30 06:39:36;;;;;;;;;41.25;34.75;;;;;14.29;88.83;102413.56;5036487;28;45565;-80
2022/04/30 06:42:04;;;;;;;;;36.00;29.50;;;;;14.37;88.52;102412.84;5033158;28;45377;-79
2022/04/30 06:44:30;;;;;;;;;30.25;27.00;;;;;14.44;88.83;102411.25;5031905;28;46232;-79
2022/04/30 06:46:55;;;;;;;;;36.75;32.25;;;;;14.49;88.52;102420.25;5030845;28;45460;-80
2022/04/30 06:49:23;;;;;;;;;36.75;29.25;;;;;14.57;87.71;102412.41;5036731;28;45462;-79
2022/04/30 06:51:48;;;;;;;;;25.25;24.75;;;;;14.58;87.21;102415.09;5036425;28;46226;-79
2022/04/30 06:59:54;;;;;;;;;32.75;27.75;;;;;14.68;86.51;102424.16;5026330;28;45280;-80
2022/04/30 07:02:23;;;;;;;;;37.75;34.50;;;;;14.70;86.55;102424.16;5039804;28;45163;-79
2022/04/30 07:04:50;;;;;;;;;37.50;30.25;;;;;14.70;86.57;102433.06;5039465;28;47646;-79
2022/04/30 07:07:17;;;;;;;;;33.00;30.75;;;;;14.70;86.29;102430.41;5037483;28;45300;-79
2022/04/30 07:09:43;;;;;;;;;34.25;31.50;;;;;14.72;85.77;102436.63;5039598;28;45410;-79
2022/04/30 07:12:10;;;;;;;;;34.00;27.25;;;;;14.72;86.24;102433.97;5040142;28;45457;-79
2022/04/30 07:14:40;;;;;;;;;31.00;28.75;;;;;14.72;85.76;102439.31;5039714;28;46500;-80
2022/04/30 07:17:07;;;;;;;;;47.00;30.75;;;;;14.68;85.18;102441.00;5039661;28;45418;-80
2022/04/30 07:19:33;;;;;;;;;29.00;26.25;;;;;14.67;85.01;102441.88;5039341;28;45379;-80
2022/04/30 07:21:58;;;;;;;;;28.00;26.50;;;;;14.67;85.21;102444.53;5039800;28;45348;-80
2022/04/30 07:24:24;;;;;;;;;28.25;28.25;;;;;14.68;85.19;102443.66;5039347;28;46706;-79
2022/04/30 07:26:49;;;;;;;;;26.50;26.50;;;;;14.70;85.17;102445.44;5039627;28;45216;-79
2022/04/30 07:29:15;;;;;;;;;30.00;27.00;;;;;14.72;84.66;102444.63;5039484;28;45584;-79
2022/04/30 07:31:40;;;;;;;;;31.75;26.50;;;;;14.75;85.06;102436.69;5039067;28;45574;-80
2022/04/30 07:34:06;;;;;;;;;25.75;20.75;;;;;14.77;84.95;102442.06;5042724;28;46417;-80
2022/04/30 07:36:31;;;;;;;;;30.75;26.75;;;;;14.81;85.25;102442.16;5038451;28;45143;-80
2022/04/30 07:38:57;;;;;;;;;34.75;27.75;;;;;14.84;84.44;102438.63;5038718;28;45356;-78
2022/04/30 07:41:24;;;;;;;;;31.50;28.50;;;;;14.86;84.78;102443.13;5033244;28;45434;-79
2022/04/30 07:43:49;;;;;;;;;25.75;23.25;;;;;14.93;84.67;102449.47;5037606;28;45593;-80
2022/04/30 07:46:14;;;;;;;;;30.25;28.50;;;;;14.97;84.27;102442.41;5039039;28;45388;-79
2022/04/30 07:48:40;;;;;;;;;32.00;27.25;;;;;15.01;84.29;102452.25;5038894;28;48455;-80
2022/04/30 07:51:13;;;;;;;;;33.00;27.00;;;;;15.01;84.53;102449.59;5038894;28;45510;-80
2022/04/30 07:53:39;;;;;;;;;33.25;29.00;;;;;15.04;84.58;102444.34;5038842;28;46467;-79
2022/04/30 07:56:04;;;;;;;;;37.50;27.00;;;;;15.07;84.09;102445.25;5034635;28;45648;-79
2022/04/30 07:58:30;;;;;;;;;32.75;32.25;;;;;15.12;83.80;102435.59;5035928;28;45299;-80
2022/04/30 08:00:55;;;;;;;;;30.00;28.75;;;;;15.16;83.98;102436.56;5039252;28;45554;-79
2022/04/30 08:03:21;;;;;;;;;28.75;27.50;;;;;15.23;84.26;102433.13;5038544;28;45457;-79
2022/04/30 08:05:46;;;;;;;;;29.50;26.75;;;;;15.34;83.88;102435.97;5039197;28;45518;-79
2022/04/30 08:08:11;;;;;;;;;32.00;28.00;;;;;15.52;84.04;102438.97;5067514;28;45423;-80
2022/04/30 08:10:37;;;;;;;;;31.50;27.00;;;;;15.70;83.28;102441.94;5058704;28;45272;-80
2022/04/30 08:13:03;;;;;;;;;30.75;24.00;;;;;15.90;82.55;102441.38;5058714;28;45772;-79
2022/04/30 08:15:28;;;;;;;;;25.50;22.00;;;;;16.04;81.90;102433.59;5040690;28;45445;-79
2022/04/30 08:17:54;;;;;;;;;28.00;25.75;;;;;16.14;81.71;102431.06;5059013;28;45352;-79
2022/04/30 08:20:20;;;;;;;;;25.75;24.00;;;;;16.19;81.56;102433.75;5057670;28;45502;-79
2022/04/30 08:22:45;;;;;;;;;32.50;26.00;;;;;16.19;80.57;102439.09;5058370;28;46613;-79
2022/04/30 08:25:11;;;;;;;;;27.25;22.25;;;;;16.18;80.48;102432.88;5047472;28;45427;-79
2022/04/30 08:27:36;;;;;;;;;30.00;25.50;;;;;16.16;80.21;102434.63;5038254;28;45516;-79
2022/04/30 08:30:03;;;;;;;;;29.75;24.00;;;;;16.16;80.61;102436.41;5038997;28;45352;-80
2022/04/30 08:32:28;;;;;;;;;38.75;25.75;;;;;16.17;79.98;102435.53;5050355;28;45844;-79
2022/04/30 08:34:54;;;;;;;;;32.00;26.00;;;;;16.15;79.24;102432.84;5062211;28;45256;-80
2022/04/30 08:37:20;;;;;;;;;26.25;26.25;;;;;16.18;79.95;102437.31;5057765;28;45615;-78
2022/04/30 08:39:45;;;;;;;;;24.00;22.25;;;;;16.19;80.21;102431.09;5058343;28;45447;-80
2022/04/30 08:42:13;;;;;;;;;28.75;25.50;;;;;16.22;79.34;102437.38;5058282;28;47253;-79
2022/04/30 08:44:39;;;;;;;;;27.25;25.00;;;;;16.15;77.51;102437.28;5058311;28;45270;-79
2022/04/30 08:47:06;;;;;;;;;23.50;20.50;;;;;16.09;78.09;102427.44;5058405;28;45214;-80
2022/04/30 08:49:35;;;;;;;;;26.25;22.50;;;;;16.08;78.05;102428.28;5058206;28;45202;-78
2022/04/30 08:52:00;;;;;;;;;24.25;21.25;;;;;16.09;77.13;102437.22;5058129;28;46526;-79
2022/04/30 08:54:25;;;;;;;;;28.00;22.50;;;;;16.08;77.30;102419.41;5058122;28;45380;-78
2022/04/30 08:56:53;;;;;;;;;23.75;21.75;;;;;16.10;77.43;102428.34;5058048;28;45487;-79
2022/04/30 08:59:18;;;;;;;;;24.50;20.00;;;;;16.12;77.48;102423.91;5058048;28;45337;-79
2022/04/30 09:01:47;;;;;;;;;24.25;22.50;;;;;16.16;77.68;102417.75;5057474;28;52702;-79
2022/04/30 09:04:13;;;;;;;;;24.75;23.25;;;;;16.19;77.04;102410.69;5057999;28;45316;-80
2022/04/30 09:06:50;;;;;;;;;24.75;21.75;;;;;16.21;76.31;102422.28;5042604;28;45409;-79
2022/04/30 09:09:28;;;;;;;;;27.00;22.25;;;;;16.22;74.75;102412.50;5030583;28;45264;-80
2022/04/30 09:11:56;;;;;;;;;20.25;20.25;;;;;16.22;74.43;102418.72;5034249;28;47442;-79
2022/04/30 09:14:26;;;;;;;;;20.67;18.33;;;;;16.23;73.75;102420.50;5037590;28;45225;-79
2022/04/30 09:17:05;;;;;;;;;18.50;15.50;;;;;16.22;73.62;102410.72;5037652;28;45292;-79
2022/04/30 09:19:44;;;;;;;;;20.00;18.75;;;;;16.23;73.99;102404.50;5036872;28;45444;-79
2022/04/30 09:22:10;;;;;;;;;17.75;16.25;;;;;16.26;73.26;102419.66;5037505;28;46827;-78
2022/04/30 09:24:48;;;;;;;;;22.00;19.00;;;;;16.31;73.48;102417.06;5037405;28;45458;-79
2022/04/30 09:27:14;;;;;;;;;17.33;15.00;;;;;16.37;73.60;102411.81;5037614;28;45355;-78
2022/04/30 09:29:39;;;;;;;;;23.00;15.00;;;;;16.40;71.81;102406.50;5036557;28;45314;-79
2022/04/30 09:32:05;;;;;;;;;13.33;13.33;;;;;16.40;71.72;102396.72;5035598;28;57962;-79
2022/04/30 09:40:12;;;;;;;;;18.75;18.75;;;;;16.53;71.08;102407.56;5037320;28;45321;-80
2022/04/30 09:42:38;;;;;;;;;15.00;13.00;;;;;16.57;70.42;102410.28;5036615;28;47009;-79
2022/04/30 09:45:04;;;;;;;;;19.50;15.00;;;;;16.61;70.27;102411.19;5037128;28;45194;-79
2022/04/30 09:47:31;;;;;;;;;14.33;13.00;;;;;16.67;69.60;102411.25;5037161;28;45425;-79
2022/04/30 09:55:25;;;;;;;;;40.00;35.50;;;;;16.76;69.06;102395.38;5035655;28;45378;-79
2022/04/30 09:57:51;;;;;;;;;24.00;22.75;;;;;16.81;67.40;102399.00;5037184;28;45300;-79
2022/04/30 10:00:17;;;;;;;;;28.75;24.50;;;;;16.83;67.76;102388.34;5035825;28;46469;-79
2022/04/30 10:02:45;;;;;;;;;17.00;17.00;;;;;16.86;67.18;102391.94;5035393;28;47450;-79
2022/04/30 10:05:11;;;;;;;;;17.25;16.50;;;;;16.87;65.28;102393.72;5038379;28;45373;-79
2022/04/30 10:07:37;;;;;;;;;14.33;13.33;;;;;16.91;65.17;102395.56;5022393;28;45413;-80
2022/04/30 10:10:28;;;;;;;;;16.33;13.67;;;;;16.96;65.44;102392.94;5043015;28;45356;-80
2022/04/30 10:13:15;;;;;;;;;11.33;10.33;;;;;17.00;64.76;102395.66;5029630;28;48070;-80
2022/04/30 10:15:53;;;;;;;;;17.00;12.67;;;;;17.03;65.57;102382.31;5023746;28;45259;-79
2022/04/30 10:18:23;;;;;;;;;12.67;12.67;;;;;17.07;65.46;102383.25;5058248;28;45279;-79
2022/04/30 10:20:53;;;;;;;;;16.33;15.00;;;;;17.12;64.78;102380.63;5056771;28;45888;-80
2022/04/30 10:23:19;;;;;;;;;13.00;13.00;;;;;17.15;64.27;102383.28;5055418;28;47632;-80
2022/04/30 10:25:46;;;;;;;;;16.67;11.67;;;;;17.18;64.38;102391.34;5056539;28;52201;-79
2022/04/30 10:28:15;;;;;;;;;18.00;16.33;;;;;17.26;64.38;102376.31;5057084;28;45414;-80
2022/04/30 10:30:41;;;;;;;;;17.00;14.67;;;;;17.32;64.52;102375.47;5056825;28;45544;-79
2022/04/30 10:33:10;;;;;;;;;22.00;19.50;;;;;17.37;64.40;102379.94;5041715;28;47319;-79
2022/04/30 10:35:40;;;;;;;;;27.00;24.25;;;;;17.40;63.79;102382.63;5041219;28;45600;-79
2022/04/30 10:38:20;;;;;;;;;48.00;39.50;;;;;17.42;63.24;102364.84;5033619;28;45261;-78
2022/04/30 10:40:47;;;;;;;;;21.75;18.75;;;;;17.47;63.59;102365.78;5036216;28;45309;-79
2022/04/30 10:43:37;;;;;;;;;16.67;15.33;;;;;17.51;63.61;102362.22;5050739;28;46686;-79
2022/04/30 10:46:05;;;;;;;;;48.75;38.25;;;;;17.57;62.42;102363.16;5060252;28;45395;-80
2022/04/30 10:48:32;;;;;;;;;17.00;15.00;;;;;17.61;62.57;102356.97;5060093;28;45311;-79
2022/04/30 10:51:08;;;;;;;;;19.00;17.00;;;;;17.64;62.54;102359.66;5060225;28;45385;-79
2022/04/30 10:53:36;;;;;;;;;21.67;16.67;;;;;17.68;62.79;102353.44;5045498;28;47687;-79
2022/04/30 10:56:03;;;;;;;;;13.00;12.67;;;;;17.74;62.48;102353.53;5018788;28;45286;-79
2022/04/30 10:58:30;;;;;;;;;14.67;14.67;;;;;17.80;62.16;102349.09;5036298;28;45555;-79
2022/04/30 11:00:56;;;;;;;;;15.00;12.00;;;;;17.86;62.39;102347.34;5040035;28;45278;-79
2022/04/30 11:03:28;;;;;;;;;11.33;11.33;;;;;17.94;60.16;102353.59;5043405;28;45572;-80
2022/04/30 11:05:55;;;;;;;;;14.00;13.00;;;;;18.01;59.54;102351.00;5057322;28;45471;-80
2022/04/30 11:08:20;;;;;;;;;13.33;10.00;;;;;18.06;60.34;102341.22;5039465;28;45464;-79
2022/04/30 11:10:54;;;;;;;;;15.00;11.00;;;;;18.12;60.55;102337.66;5047837;28;45516;-79
2022/04/30 11:13:20;;;;;;;;;13.67;11.33;;;;;18.21;61.15;102334.13;5039598;28;45501;-80
2022/04/30 11:15:46;;;;;;;;;9.33;8.00;;;;;18.31;58.73;102346.63;5039994;28;45662;-79
2022/04/30 11:18:11;;;;;;;;;12.33;10.33;;;;;18.42;60.07;102327.94;5038324;28;45246;-79
2022/04/30 11:20:37;;;;;;;;;12.00;11.00;;;;;18.50;59.67;102332.44;5038798;28;45419;-79
2022/04/30 11:23:03;;;;;;;;;9.33;9.33;;;;;18.56;58.44;102332.44;5045692;28;46162;-80
2022/04/30 11:25:38;;;;;;;;;7.00;7.00;;;;;18.63;57.10;102327.09;5041269;28;45375;-79
2022/04/30 11:28:13;;;;;;;;;8.67;8.67;;;;;18.71;55.23;102328.94;5039412;28;45438;-79
2022/04/30 11:30:40;;;;;;;;;9.00;6.33;;;;;18.76;54.29;102310.22;5058371;28;45268;-79
2022/04/30 11:33:06;;;;;;;;;7.00;6.67;;;;;18.78;53.07;102314.66;5041125;28;47730;-79
2022/04/30 11:35:32;;;;;;;;;10.00;8.33;;;;;18.83;55.04;102315.56;5042888;28;45166;-80
2022/04/30 11:37:57;;;;;;;;;6.33;6.33;;;;;18.88;54.63;102312.00;5039267;28;45229;-80
2022/04/30 11:40:24;;;;;;;;;7.00;6.67;;;;;18.92;54.58;102311.13;5038820;28;46313;-80
2022/04/30 11:42:56;;;;;;;;;7.00;6.33;;;;;18.98;54.39;102309.31;5038548;28;46974;-79
2022/04/30 11:45:29;;;;;;;;;6.00;5.00;;;;;19.04;53.99;102313.78;5039054;28;45432;-81
2022/04/30 11:48:03;;;;;;;;;6.67;5.67;;;;;19.14;53.82;102306.66;5039385;28;45209;-80